sensor_id;sensor_type;location;lat;lon;timestamp;pressure;altitude;pressure_sealevel;temperature
82636;BMP280;72317;37.280;-121.948;2024-03-17T00:02:56;100847.13;;;22.49
82636;BMP280;72317;37.280;-121.948;2024-03-17T00:07:56;100851.00;;;22.39
82636;BMP280;72317;37.280;-121.948;2024-03-17T00:12:57;100850.53;;;22.41
82636;BMP280;72317;37.280;-121.948;2024-03-17T00:17:58;100854.41;;;22.18
82636;BMP280;72317;37.280;-121.948;2024-03-17T00:22:59;100846.59;;;22.07
82636;BMP280;72317;37.280;-121.948;2024-03-17T00:28:03;100835.56;;;21.98
82636;BMP280;72317;37.280;-121.948;2024-03-17T00:33:04;100848.16;;;21.83
82636;BMP280;72317;37.280;-121.948;2024-03-17T00:38:04;100839.53;;;21.84
82636;BMP280;72317;37.280;-121.948;2024-03-17T00:43:05;100834.09;;;21.59
82636;BMP280;72317;37.280;-121.948;2024-03-17T00:48:06;100843.50;;;21.45
82636;BMP280;72317;37.280;-121.948;2024-03-17T00:53:07;100850.31;;;21.24
82636;BMP280;72317;37.280;-121.948;2024-03-17T00:58:08;100857.81;;;21.20
82636;BMP280;72317;37.280;-121.948;2024-03-17T01:03:08;100864.28;;;20.98
82636;BMP280;72317;37.280;-121.948;2024-03-17T01:08:09;100862.03;;;20.67
82636;BMP280;72317;37.280;-121.948;2024-03-17T01:13:10;100885.53;;;20.45
82636;BMP280;72317;37.280;-121.948;2024-03-17T01:18:11;100889.44;;;20.27
82636;BMP280;72317;37.280;-121.948;2024-03-17T01:23:12;100876.75;;;20.05
82636;BMP280;72317;37.280;-121.948;2024-03-17T01:28:13;100882.78;;;19.80
82636;BMP280;72317;37.280;-121.948;2024-03-17T01:33:13;100893.16;;;19.85
82636;BMP280;72317;37.280;-121.948;2024-03-17T01:38:14;100902.38;;;19.51
82636;BMP280;72317;37.280;-121.948;2024-03-17T01:43:15;100880.03;;;19.24
82636;BMP280;72317;37.280;-121.948;2024-03-17T01:48:16;100803.94;;;19.24
82636;BMP280;72317;37.280;-121.948;2024-03-17T01:53:17;100646.53;;;19.01
82636;BMP280;72317;37.280;-121.948;2024-03-17T01:58:20;100440.81;;;18.88
82636;BMP280;72317;37.280;-121.948;2024-03-17T02:03:21;100256.91;;;18.64
82636;BMP280;72317;37.280;-121.948;2024-03-17T02:08:21;100130.53;;;18.50
82636;BMP280;72317;37.280;-121.948;2024-03-17T02:13:22;99990.09;;;18.16
82636;BMP280;72317;37.280;-121.948;2024-03-17T02:18:23;100001.59;;;18.20
82636;BMP280;72317;37.280;-121.948;2024-03-17T02:23:25;99697.13;;;17.72
82636;BMP280;72317;37.280;-121.948;2024-03-17T02:28:26;99588.84;;;17.81
82636;BMP280;72317;37.280;-121.948;2024-03-17T02:33:27;99380.91;;;17.73
82636;BMP280;72317;37.280;-121.948;2024-03-17T02:38:28;99329.63;;;17.47
82636;BMP280;72317;37.280;-121.948;2024-03-17T02:43:28;99274.53;;;17.41
82636;BMP280;72317;37.280;-121.948;2024-03-17T02:48:30;99223.75;;;17.23
82636;BMP280;72317;37.280;-121.948;2024-03-17T02:53:30;99143.53;;;17.17
82636;BMP280;72317;37.280;-121.948;2024-03-17T02:58:31;99081.06;;;16.93
82636;BMP280;72317;37.280;-121.948;2024-03-17T03:03:33;99028.50;;;17.03
82636;BMP280;72317;37.280;-121.948;2024-03-17T03:08:34;98972.13;;;17.01
82636;BMP280;72317;37.280;-121.948;2024-03-17T03:13:34;98858.78;;;16.76
82636;BMP280;72317;37.280;-121.948;2024-03-17T03:18:36;98821.66;;;16.77
82636;BMP280;72317;37.280;-121.948;2024-03-17T03:23:37;98480.94;;;16.34
82636;BMP280;72317;37.280;-121.948;2024-03-17T03:28:38;98233.16;;;16.26
82636;BMP280;72317;37.280;-121.948;2024-03-17T03:33:41;98153.75;;;16.23
82636;BMP280;72317;37.280;-121.948;2024-03-17T03:38:42;98294.69;;;16.22
82636;BMP280;72317;37.280;-121.948;2024-03-17T03:43:43;98368.91;;;16.02
82636;BMP280;72317;37.280;-121.948;2024-03-17T03:48:44;98391.09;;;16.06
82636;BMP280;72317;37.280;-121.948;2024-03-17T03:53:45;98418.88;;;15.89
82636;BMP280;72317;37.280;-121.948;2024-03-17T03:58:46;98463.88;;;15.92
82636;BMP280;72317;37.280;-121.948;2024-03-17T04:03:47;98310.31;;;15.66
82636;BMP280;72317;37.280;-121.948;2024-03-17T04:08:47;98352.16;;;15.71
82636;BMP280;72317;37.280;-121.948;2024-03-17T04:13:48;98376.31;;;15.56
82636;BMP280;72317;37.280;-121.948;2024-03-17T04:18:49;98401.63;;;15.59
82636;BMP280;72317;37.280;-121.948;2024-03-17T04:23:50;98285.91;;;15.52
82636;BMP280;72317;37.280;-121.948;2024-03-17T04:28:50;98277.22;;;15.48
82636;BMP280;72317;37.280;-121.948;2024-03-17T04:33:51;98216.28;;;15.04
82636;BMP280;72317;37.280;-121.948;2024-03-17T04:38:52;98088.81;;;15.04
82636;BMP280;72317;37.280;-121.948;2024-03-17T04:43:53;98055.31;;;14.96
82636;BMP280;72317;37.280;-121.948;2024-03-17T04:48:54;98065.63;;;14.88
82636;BMP280;72317;37.280;-121.948;2024-03-17T04:53:55;98064.63;;;14.86
82636;BMP280;72317;37.280;-121.948;2024-03-17T04:58:56;98071.78;;;14.89
82636;BMP280;72317;37.280;-121.948;2024-03-17T05:03:56;98039.34;;;14.65
82636;BMP280;72317;37.280;-121.948;2024-03-17T05:08:57;98042.34;;;14.67
82636;BMP280;72317;37.280;-121.948;2024-03-17T05:13:58;98047.94;;;14.45
82636;BMP280;72317;37.280;-121.948;2024-03-17T05:18:59;98061.06;;;14.43
82636;BMP280;72317;37.280;-121.948;2024-03-17T05:24:02;98071.28;;;14.39
82636;BMP280;72317;37.280;-121.948;2024-03-17T05:29:02;98082.03;;;14.48
82636;BMP280;72317;37.280;-121.948;2024-03-17T05:34:03;98107.78;;;14.31
82636;BMP280;72317;37.280;-121.948;2024-03-17T05:39:04;98112.41;;;14.30
82636;BMP280;72317;37.280;-121.948;2024-03-17T05:44:05;98127.22;;;14.26
82636;BMP280;72317;37.280;-121.948;2024-03-17T05:49:06;98160.69;;;14.15
82636;BMP280;72317;37.280;-121.948;2024-03-17T05:54:06;98169.53;;;14.16
82636;BMP280;72317;37.280;-121.948;2024-03-17T05:59:07;98216.63;;;14.11
82636;BMP280;72317;37.280;-121.948;2024-03-17T06:04:08;98210.66;;;14.07
82636;BMP280;72317;37.280;-121.948;2024-03-17T06:09:08;98223.78;;;14.05
82636;BMP280;72317;37.280;-121.948;2024-03-17T06:14:09;98247.69;;;13.94
82636;BMP280;72317;37.280;-121.948;2024-03-17T06:19:10;98269.41;;;13.78
82636;BMP280;72317;37.280;-121.948;2024-03-17T06:24:11;98220.47;;;13.92
82636;BMP280;72317;37.280;-121.948;2024-03-17T06:29:11;98167.19;;;13.87
82636;BMP280;72317;37.280;-121.948;2024-03-17T06:34:12;98156.81;;;13.67
82636;BMP280;72317;37.280;-121.948;2024-03-17T06:39:13;98200.13;;;13.60
82636;BMP280;72317;37.280;-121.948;2024-03-17T06:44:14;98197.22;;;13.23
82636;BMP280;72317;37.280;-121.948;2024-03-17T06:49:14;98222.56;;;13.00
82636;BMP280;72317;37.280;-121.948;2024-03-17T06:54:15;98243.50;;;12.84
82636;BMP280;72317;37.280;-121.948;2024-03-17T06:59:16;98285.13;;;12.66
82636;BMP280;72317;37.280;-121.948;2024-03-17T07:04:16;98354.31;;;12.37
82636;BMP280;72317;37.280;-121.948;2024-03-17T07:09:17;98323.91;;;12.53
82636;BMP280;72317;37.280;-121.948;2024-03-17T07:14:18;98345.38;;;12.27
82636;BMP280;72317;37.280;-121.948;2024-03-17T07:19:19;98326.13;;;12.29
82636;BMP280;72317;37.280;-121.948;2024-03-17T07:24:20;98283.53;;;12.44
82636;BMP280;72317;37.280;-121.948;2024-03-17T07:29:20;98299.09;;;12.23
82636;BMP280;72317;37.280;-121.948;2024-03-17T07:34:21;98312.38;;;12.14
82636;BMP280;72317;37.280;-121.948;2024-03-17T07:39:22;98297.16;;;12.24
82636;BMP280;72317;37.280;-121.948;2024-03-17T07:44:23;98285.75;;;12.20
82636;BMP280;72317;37.280;-121.948;2024-03-17T07:49:23;98307.63;;;12.05
82636;BMP280;72317;37.280;-121.948;2024-03-17T07:54:25;98330.59;;;11.94
82636;BMP280;72317;37.280;-121.948;2024-03-17T07:59:25;98312.25;;;12.05
82636;BMP280;72317;37.280;-121.948;2024-03-17T08:04:26;98307.22;;;11.94
82636;BMP280;72317;37.280;-121.948;2024-03-17T08:09:28;98319.81;;;11.81
82636;BMP280;72317;37.280;-121.948;2024-03-17T08:14:29;98331.06;;;11.76
82636;BMP280;72317;37.280;-121.948;2024-03-17T08:19:29;98369.31;;;11.64
82636;BMP280;72317;37.280;-121.948;2024-03-17T08:24:30;98394.53;;;11.66
82636;BMP280;72317;37.280;-121.948;2024-03-17T08:29:31;98391.56;;;11.48
82636;BMP280;72317;37.280;-121.948;2024-03-17T08:34:31;98431.94;;;11.25
82636;BMP280;72317;37.280;-121.948;2024-03-17T08:39:32;98398.69;;;11.38
82636;BMP280;72317;37.280;-121.948;2024-03-17T08:44:33;98459.97;;;11.20
82636;BMP280;72317;37.280;-121.948;2024-03-17T08:49:34;98545.38;;;11.02
82636;BMP280;72317;37.280;-121.948;2024-03-17T08:54:34;98598.69;;;10.96
82636;BMP280;72317;37.280;-121.948;2024-03-17T08:59:35;98609.34;;;11.00
82636;BMP280;72317;37.280;-121.948;2024-03-17T09:04:36;98620.53;;;10.95
82636;BMP280;72317;37.280;-121.948;2024-03-17T09:09:37;98597.44;;;11.01
82636;BMP280;72317;37.280;-121.948;2024-03-17T09:14:37;98553.28;;;11.09
82636;BMP280;72317;37.280;-121.948;2024-03-17T09:19:38;98554.66;;;10.77
82636;BMP280;72317;37.280;-121.948;2024-03-17T09:24:39;98613.91;;;10.79
82636;BMP280;72317;37.280;-121.948;2024-03-17T09:29:40;98638.09;;;10.76
82636;BMP280;72317;37.280;-121.948;2024-03-17T09:34:40;98752.56;;;10.72
82636;BMP280;72317;37.280;-121.948;2024-03-17T09:39:41;98746.09;;;10.69
82636;BMP280;72317;37.280;-121.948;2024-03-17T09:44:43;98733.59;;;10.62
82636;BMP280;72317;37.280;-121.948;2024-03-17T09:49:45;98733.59;;;10.62
82636;BMP280;72317;37.280;-121.948;2024-03-17T09:54:46;98694.78;;;10.47
82636;BMP280;72317;37.280;-121.948;2024-03-17T09:59:53;98694.44;;;10.45
82636;BMP280;72317;37.280;-121.948;2024-03-17T10:04:53;98639.38;;;10.44
82636;BMP280;72317;37.280;-121.948;2024-03-17T10:10:11;98515.28;;;10.54
82636;BMP280;72317;37.280;-121.948;2024-03-17T10:15:12;98585.44;;;10.46
82636;BMP280;72317;37.280;-121.948;2024-03-17T10:20:16;98692.03;;;10.51
82636;BMP280;72317;37.280;-121.948;2024-03-17T10:25:17;98765.22;;;10.71
82636;BMP280;72317;37.280;-121.948;2024-03-17T10:30:18;98865.09;;;10.68
82636;BMP280;72317;37.280;-121.948;2024-03-17T10:35:38;99025.00;;;10.71
82636;BMP280;72317;37.280;-121.948;2024-03-17T10:40:39;99164.00;;;10.58
82636;BMP280;72317;37.280;-121.948;2024-03-17T10:45:40;99241.44;;;10.35
82636;BMP280;72317;37.280;-121.948;2024-03-17T10:50:41;99281.88;;;10.55
82636;BMP280;72317;37.280;-121.948;2024-03-17T10:55:46;99332.53;;;10.17
82636;BMP280;72317;37.280;-121.948;2024-03-17T11:00:47;99418.53;;;10.26
82636;BMP280;72317;37.280;-121.948;2024-03-17T11:05:49;99438.09;;;10.13
82636;BMP280;72317;37.280;-121.948;2024-03-17T11:10:53;99439.53;;;10.46
82636;BMP280;72317;37.280;-121.948;2024-03-17T11:15:54;99410.84;;;10.39
82636;BMP280;72317;37.280;-121.948;2024-03-17T11:26:06;99632.31;;;10.03
82636;BMP280;72317;37.280;-121.948;2024-03-17T11:31:32;99603.63;;;10.18
82636;BMP280;72317;37.280;-121.948;2024-03-17T11:36:36;99613.91;;;9.80
82636;BMP280;72317;37.280;-121.948;2024-03-17T11:41:41;99673.13;;;9.75
82636;BMP280;72317;37.280;-121.948;2024-03-17T11:46:42;99682.69;;;9.76
82636;BMP280;72317;37.280;-121.948;2024-03-17T11:51:45;99615.78;;;9.72
82636;BMP280;72317;37.280;-121.948;2024-03-17T11:56:48;99538.19;;;9.58
82636;BMP280;72317;37.280;-121.948;2024-03-17T12:01:50;99229.50;;;9.63
82636;BMP280;72317;37.280;-121.948;2024-03-17T12:06:56;98949.16;;;9.61
82636;BMP280;72317;37.280;-121.948;2024-03-17T12:12:02;98704.41;;;9.57
82636;BMP280;72317;37.280;-121.948;2024-03-17T12:17:06;98589.47;;;9.53
82636;BMP280;72317;37.280;-121.948;2024-03-17T12:22:07;98481.75;;;9.29
82636;BMP280;72317;37.280;-121.948;2024-03-17T12:27:08;98431.28;;;9.08
82636;BMP280;72317;37.280;-121.948;2024-03-17T12:32:24;98397.72;;;9.07
82636;BMP280;72317;37.280;-121.948;2024-03-17T12:37:26;98450.50;;;8.96
82636;BMP280;72317;37.280;-121.948;2024-03-17T12:42:28;98453.84;;;9.03
82636;BMP280;72317;37.280;-121.948;2024-03-17T12:47:31;98473.81;;;8.95
82636;BMP280;72317;37.280;-121.948;2024-03-17T12:52:33;98564.66;;;8.88
82636;BMP280;72317;37.280;-121.948;2024-03-17T12:57:34;98569.50;;;9.00
82636;BMP280;72317;37.280;-121.948;2024-03-17T13:02:40;98509.00;;;8.86
82636;BMP280;72317;37.280;-121.948;2024-03-17T13:07:41;98500.16;;;8.93
82636;BMP280;72317;37.280;-121.948;2024-03-17T13:12:42;98565.88;;;8.80
82636;BMP280;72317;37.280;-121.948;2024-03-17T13:17:43;98513.16;;;8.91
82636;BMP280;72317;37.280;-121.948;2024-03-17T13:22:45;98571.78;;;8.64
82636;BMP280;72317;37.280;-121.948;2024-03-17T13:27:47;98617.34;;;8.84
82636;BMP280;72317;37.280;-121.948;2024-03-17T13:32:48;98685.97;;;8.90
82636;BMP280;72317;37.280;-121.948;2024-03-17T13:37:50;98815.31;;;8.86
82636;BMP280;72317;37.280;-121.948;2024-03-17T13:42:52;99025.94;;;8.80
82636;BMP280;72317;37.280;-121.948;2024-03-17T13:47:57;99115.16;;;8.86
82636;BMP280;72317;37.280;-121.948;2024-03-17T13:52:58;99081.59;;;8.93
82636;BMP280;72317;37.280;-121.948;2024-03-17T13:57:59;99080.81;;;8.99
82636;BMP280;72317;37.280;-121.948;2024-03-17T14:02:59;99046.47;;;8.98
82636;BMP280;72317;37.280;-121.948;2024-03-17T14:08:00;99086.53;;;9.05
82636;BMP280;72317;37.280;-121.948;2024-03-17T14:13:01;99096.84;;;8.88
82636;BMP280;72317;37.280;-121.948;2024-03-17T14:18:02;99291.41;;;8.65
82636;BMP280;72317;37.280;-121.948;2024-03-17T14:23:03;99396.69;;;8.64
82636;BMP280;72317;37.280;-121.948;2024-03-17T14:28:04;99556.41;;;8.48
82636;BMP280;72317;37.280;-121.948;2024-03-17T14:33:05;99680.75;;;8.56
82636;BMP280;72317;37.280;-121.948;2024-03-17T14:38:05;99611.13;;;8.72
82636;BMP280;72317;37.280;-121.948;2024-03-17T14:43:06;99552.56;;;9.04
82636;BMP280;72317;37.280;-121.948;2024-03-17T14:48:07;99419.00;;;9.46
82636;BMP280;72317;37.280;-121.948;2024-03-17T14:53:08;99322.31;;;9.80
82636;BMP280;72317;37.280;-121.948;2024-03-17T14:58:09;99176.34;;;9.83
82636;BMP280;72317;37.280;-121.948;2024-03-17T15:03:09;98967.25;;;9.91
82636;BMP280;72317;37.280;-121.948;2024-03-17T15:08:10;98754.56;;;10.10
82636;BMP280;72317;37.280;-121.948;2024-03-17T15:13:11;98508.56;;;10.46
82636;BMP280;72317;37.280;-121.948;2024-03-17T15:18:12;98275.97;;;11.30
82636;BMP280;72317;37.280;-121.948;2024-03-17T15:23:12;99287.50;;;12.22
82636;BMP280;72317;37.280;-121.948;2024-03-17T15:28:13;100201.44;;;15.38
82636;BMP280;72317;37.280;-121.948;2024-03-17T15:33:14;100571.97;;;17.70
82636;BMP280;72317;37.280;-121.948;2024-03-17T15:38:15;99792.63;;;13.35
82636;BMP280;72317;37.280;-121.948;2024-03-17T15:43:15;99863.88;;;16.57
82636;BMP280;72317;37.280;-121.948;2024-03-17T15:48:16;100084.38;;;16.98
82636;BMP280;72317;37.280;-121.948;2024-03-17T15:53:17;100144.56;;;16.46
82636;BMP280;72317;37.280;-121.948;2024-03-17T15:58:18;99794.03;;;13.80
82636;BMP280;72317;37.280;-121.948;2024-03-17T16:03:19;99387.75;;;13.23
82636;BMP280;72317;37.280;-121.948;2024-03-17T16:08:22;99313.19;;;12.23
82636;BMP280;72317;37.280;-121.948;2024-03-17T16:13:23;99213.06;;;12.49
82636;BMP280;72317;37.280;-121.948;2024-03-17T16:18:24;99101.53;;;12.61
82636;BMP280;72317;37.280;-121.948;2024-03-17T16:23:26;98985.81;;;12.72
82636;BMP280;72317;37.280;-121.948;2024-03-17T16:28:29;98868.94;;;13.12
82636;BMP280;72317;37.280;-121.948;2024-03-17T16:33:30;98858.63;;;12.94
82636;BMP280;72317;37.280;-121.948;2024-03-17T16:38:40;98859.59;;;13.00
82636;BMP280;72317;37.280;-121.948;2024-03-17T16:49:09;99142.94;;;13.79
82636;BMP280;72317;37.280;-121.948;2024-03-17T16:54:10;99399.91;;;13.74
82636;BMP280;72317;37.280;-121.948;2024-03-17T16:59:11;99555.19;;;13.54
82636;BMP280;72317;37.280;-121.948;2024-03-17T17:04:12;99855.06;;;14.98
82636;BMP280;72317;37.280;-121.948;2024-03-17T17:09:13;99406.72;;;14.91
82636;BMP280;72317;37.280;-121.948;2024-03-17T17:14:14;98839.75;;;14.27
82636;BMP280;72317;37.280;-121.948;2024-03-17T17:19:14;99037.72;;;14.47
82636;BMP280;72317;37.280;-121.948;2024-03-17T17:24:17;99160.50;;;14.77
82636;BMP280;72317;37.280;-121.948;2024-03-17T17:29:18;99224.63;;;15.15
82636;BMP280;72317;37.280;-121.948;2024-03-17T17:34:18;99191.75;;;15.58
82636;BMP280;72317;37.280;-121.948;2024-03-17T17:39:19;99732.00;;;17.19
82636;BMP280;72317;37.280;-121.948;2024-03-17T17:44:20;100308.31;;;18.71
82636;BMP280;72317;37.280;-121.948;2024-03-17T17:49:21;100864.78;;;19.50
82636;BMP280;72317;37.280;-121.948;2024-03-17T17:54:21;100555.19;;;17.79
82636;BMP280;72317;37.280;-121.948;2024-03-17T17:59:22;101150.50;;;23.62
82636;BMP280;72317;37.280;-121.948;2024-03-17T18:04:23;101164.72;;;20.26
82636;BMP280;72317;37.280;-121.948;2024-03-17T18:09:24;101200.19;;;20.98
82636;BMP280;72317;37.280;-121.948;2024-03-17T18:14:24;101301.47;;;26.83
82636;BMP280;72317;37.280;-121.948;2024-03-17T18:19:25;101303.41;;;26.92
82636;BMP280;72317;37.280;-121.948;2024-03-17T18:24:26;101321.63;;;30.42
82636;BMP280;72317;37.280;-121.948;2024-03-17T18:29:27;101320.66;;;30.14
82636;BMP280;72317;37.280;-121.948;2024-03-17T18:34:27;101301.59;;;26.88
82636;BMP280;72317;37.280;-121.948;2024-03-17T18:39:28;101287.00;;;25.00
82636;BMP280;72317;37.280;-121.948;2024-03-17T18:44:29;101288.53;;;25.96
82636;BMP280;72317;37.280;-121.948;2024-03-17T18:49:30;101311.44;;;26.11
82636;BMP280;72317;37.280;-121.948;2024-03-17T18:54:30;101300.47;;;27.67
82636;BMP280;72317;37.280;-121.948;2024-03-17T18:59:31;101327.22;;;30.90
82636;BMP280;72317;37.280;-121.948;2024-03-17T19:04:32;101302.44;;;30.02
82636;BMP280;72317;37.280;-121.948;2024-03-17T19:09:33;101295.66;;;29.05
82636;BMP280;72317;37.280;-121.948;2024-03-17T19:14:33;101280.78;;;28.47
82636;BMP280;72317;37.280;-121.948;2024-03-17T19:19:34;101271.44;;;29.35
82636;BMP280;72317;37.280;-121.948;2024-03-17T19:24:35;101280.16;;;30.48
82636;BMP280;72317;37.280;-121.948;2024-03-17T19:29:36;101264.13;;;30.57
82636;BMP280;72317;37.280;-121.948;2024-03-17T19:34:37;101260.09;;;26.26
82636;BMP280;72317;37.280;-121.948;2024-03-17T19:39:37;101238.94;;;26.83
82636;BMP280;72317;37.280;-121.948;2024-03-17T19:44:38;101234.25;;;26.42
82636;BMP280;72317;37.280;-121.948;2024-03-17T19:49:39;101226.16;;;25.87
82636;BMP280;72317;37.280;-121.948;2024-03-17T19:54:40;101227.53;;;25.83
82636;BMP280;72317;37.280;-121.948;2024-03-17T19:59:40;101232.34;;;26.24
82636;BMP280;72317;37.280;-121.948;2024-03-17T20:04:41;101232.09;;;26.04
82636;BMP280;72317;37.280;-121.948;2024-03-17T20:09:42;101225.53;;;25.83
82636;BMP280;72317;37.280;-121.948;2024-03-17T20:14:43;101217.94;;;25.69
82636;BMP280;72317;37.280;-121.948;2024-03-17T20:19:43;101214.88;;;25.85
82636;BMP280;72317;37.280;-121.948;2024-03-17T20:24:46;101205.03;;;26.21
82636;BMP280;72317;37.280;-121.948;2024-03-17T20:29:47;101196.41;;;25.86
82636;BMP280;72317;37.280;-121.948;2024-03-17T20:34:48;101201.34;;;25.54
82636;BMP280;72317;37.280;-121.948;2024-03-17T20:39:48;101206.50;;;25.16
82636;BMP280;72317;37.280;-121.948;2024-03-17T20:44:49;101189.59;;;25.63
82636;BMP280;72317;37.280;-121.948;2024-03-17T20:49:51;101189.69;;;24.55
82636;BMP280;72317;37.280;-121.948;2024-03-17T20:54:52;101175.94;;;24.86
82636;BMP280;72317;37.280;-121.948;2024-03-17T20:59:53;101173.50;;;24.79
82636;BMP280;72317;37.280;-121.948;2024-03-17T21:04:54;101163.28;;;24.80
82636;BMP280;72317;37.280;-121.948;2024-03-17T21:09:55;101150.97;;;24.13
82636;BMP280;72317;37.280;-121.948;2024-03-17T21:14:56;101142.69;;;24.57
82636;BMP280;72317;37.280;-121.948;2024-03-17T21:19:57;101134.09;;;24.46
82636;BMP280;72317;37.280;-121.948;2024-03-17T21:24:57;101135.09;;;24.30
82636;BMP280;72317;37.280;-121.948;2024-03-17T21:29:58;101119.16;;;24.07
82636;BMP280;72317;37.280;-121.948;2024-03-17T21:34:59;101127.84;;;24.05
82636;BMP280;72317;37.280;-121.948;2024-03-17T21:40:00;101123.47;;;24.17
82636;BMP280;72317;37.280;-121.948;2024-03-17T21:45:01;101119.69;;;23.92
82636;BMP280;72317;37.280;-121.948;2024-03-17T21:50:02;101118.13;;;24.04
82636;BMP280;72317;37.280;-121.948;2024-03-17T21:55:03;101111.50;;;23.71
82636;BMP280;72317;37.280;-121.948;2024-03-17T22:00:07;101119.06;;;23.66
82636;BMP280;72317;37.280;-121.948;2024-03-17T22:05:08;101120.34;;;23.75
82636;BMP280;72317;37.280;-121.948;2024-03-17T22:10:11;101115.19;;;23.55
82636;BMP280;72317;37.280;-121.948;2024-03-17T22:15:11;101103.72;;;23.25
82636;BMP280;72317;37.280;-121.948;2024-03-17T22:20:12;101100.16;;;23.38
82636;BMP280;72317;37.280;-121.948;2024-03-17T22:25:13;101104.75;;;23.41
82636;BMP280;72317;37.280;-121.948;2024-03-17T22:30:14;101099.81;;;23.14
82636;BMP280;72317;37.280;-121.948;2024-03-17T22:35:15;101096.41;;;23.22
82636;BMP280;72317;37.280;-121.948;2024-03-17T22:40:15;101087.44;;;23.09
82636;BMP280;72317;37.280;-121.948;2024-03-17T22:45:16;101084.72;;;22.75
82636;BMP280;72317;37.280;-121.948;2024-03-17T22:50:17;101076.22;;;22.94
82636;BMP280;72317;37.280;-121.948;2024-03-17T22:55:18;101067.78;;;22.42
82636;BMP280;72317;37.280;-121.948;2024-03-17T23:00:18;101064.72;;;22.27
82636;BMP280;72317;37.280;-121.948;2024-03-17T23:05:19;101036.00;;;22.60
82636;BMP280;72317;37.280;-121.948;2024-03-17T23:10:20;101036.66;;;22.52
82636;BMP280;72317;37.280;-121.948;2024-03-17T23:15:21;101056.31;;;22.34
82636;BMP280;72317;37.280;-121.948;2024-03-17T23:20:22;101035.59;;;22.24
82636;BMP280;72317;37.280;-121.948;2024-03-17T23:25:22;101014.50;;;22.12
82636;BMP280;72317;37.280;-121.948;2024-03-17T23:30:23;100986.66;;;22.04
82636;BMP280;72317;37.280;-121.948;2024-03-17T23:35:24;101015.38;;;22.09
82636;BMP280;72317;37.280;-121.948;2024-03-17T23:40:25;100997.34;;;21.99
82636;BMP280;72317;37.280;-121.948;2024-03-17T23:45:26;101057.44;;;21.70
82636;BMP280;72317;37.280;-121.948;2024-03-17T23:50:27;101055.00;;;21.59
82636;BMP280;72317;37.280;-121.948;2024-03-17T23:55:28;100996.56;;;21.44
